Current Weather

Waukegan

Waukegan, Illinois (KUGN)

Report from: Sunday, February 5, 2023 10:51 PM CST
Current time: Sunday, February 5, 2023 11:28 PM CST

Nearby weather
Weather history
Weather forecast

Temperature-6.7°C (19.9°F)
Dew point-8.3°C (17.1°F)
Winds Calm
Visibility7 mi. (11.3 km)
Clouds Sky clear
Altimeter30.13 in.Hg (1020 mB)
Relative humidity88 %
Density altitude-2,882 ft. (-878 m)
Sea-level pressure102.2 kPa (1022 mB, 30.17 in.Hg)
Remarks Fully automated report
Automated weather observing station with precipitation discriminator
Flight conditions Visual Meteorological Conditions
Raw dataKUGN 060451Z AUTO 00000KT 7SM CLR M07/M08 A3013 RMK AO2 SLP216 T10671083
An error has occurred. This application may no longer respond until reloaded. Reload 🗙